Time;durP1;ratioP1;P1;durP2;ratioP2;P2;SDS_P1;SDS_P2;PMS_P1;PMS_P2;Temp;Humidity;BMP_temperature;BMP_pressure;BME280_temperature;BME280_humidity;BME280_pressure;Samples;Min_cycle;Max_cycle;Signal;HPM_P1;HPM_P2
2022/08/15 00:01:40;;;;;;;4.47;1.60;;;21.60;91.40;;;;;;5073142;28;20033;-77
2022/08/15 00:04:08;;;;;;;2.80;1.52;;;21.50;91.60;;;;;;5072839;28;21168;-77
2022/08/15 00:06:45;;;;;;;3.20;1.60;;;21.80;91.10;;;;;;5073315;28;20078;-77
2022/08/15 00:09:18;;;;;;;3.50;1.75;;;21.90;91.00;;;;;;5072882;28;20044;-77
2022/08/15 00:11:49;;;;;;;3.78;1.77;;;21.90;90.80;;;;;;5073348;28;20059;-77
2022/08/15 00:14:21;;;;;;;2.78;1.40;;;21.90;90.90;;;;;;5073192;28;20017;-77
2022/08/15 00:16:48;;;;;;;3.92;1.77;;;21.90;91.30;;;;;;5073324;28;20025;-76
2022/08/15 00:19:29;;;;;;;3.08;1.70;;;21.90;91.30;;;;;;5073048;28;20024;-77
2022/08/15 00:21:59;;;;;;;2.78;1.42;;;21.90;91.00;;;;;;5072888;28;20040;-77
2022/08/15 00:24:27;;;;;;;3.75;1.48;;;21.90;91.20;;;;;;5073002;28;20027;-77
2022/08/15 00:26:54;;;;;;;5.40;1.55;;;21.90;91.30;;;;;;5072847;28;20036;-77
2022/08/15 00:29:22;;;;;;;3.78;1.67;;;21.80;91.40;;;;;;5072899;28;20029;-77
2022/08/15 00:31:48;;;;;;;3.60;2.15;;;21.90;91.40;;;;;;5072936;28;20028;-77
2022/08/15 00:34:16;;;;;;;3.60;1.80;;;22.00;91.20;;;;;;5072598;28;20108;-77
2022/08/15 00:36:43;;;;;;;3.55;2.05;;;21.90;91.10;;;;;;5072864;28;20036;-77
2022/08/15 00:39:09;;;;;;;5.10;1.83;;;22.00;91.20;;;;;;5072750;28;20031;-77
2022/08/15 00:41:41;;;;;;;3.53;1.88;;;22.00;91.10;;;;;;5072388;28;20115;-77
2022/08/15 00:44:27;;;;;;;3.22;2.13;;;22.00;90.90;;;;;;5072880;28;20035;-77
2022/08/15 00:47:00;;;;;;;5.15;1.60;;;22.00;91.10;;;;;;5073017;28;20158;-77
2022/08/15 00:49:28;;;;;;;5.50;2.20;;;22.00;91.30;;;;;;5072490;28;20499;-77
2022/08/15 00:52:20;;;;;;;3.80;2.00;;;21.90;91.40;;;;;;5054476;28;20644;-76
2022/08/15 00:54:50;;;;;;;4.72;1.98;;;21.80;91.40;;;;;;5067813;28;20072;-77
2022/08/15 00:57:22;;;;;;;3.10;1.75;;;21.90;91.30;;;;;;5072626;28;20105;-77
2022/08/15 00:59:55;;;;;;;4.50;1.70;;;21.90;91.20;;;;;;5072526;28;20025;-77
2022/08/15 01:02:28;;;;;;;4.07;1.88;;;21.90;91.20;;;;;;5072193;28;20029;-77
2022/08/15 01:04:54;;;;;;;3.03;1.70;;;21.90;91.40;;;;;;5072508;28;20043;-77
2022/08/15 01:07:22;;;;;;;3.17;1.85;;;21.80;91.40;;;;;;5072511;28;20390;-77
2022/08/15 01:09:49;;;;;;;5.50;1.73;;;21.70;91.60;;;;;;5075651;28;20052;-77
2022/08/15 01:12:20;;;;;;;2.92;1.50;;;21.70;91.50;;;;;;5076486;28;20052;-77
2022/08/15 01:14:54;;;;;;;3.47;2.00;;;21.80;91.40;;;;;;5075922;28;20032;-77
2022/08/15 01:17:20;;;;;;;5.80;1.80;;;21.80;91.50;;;;;;5076417;28;20029;-77
2022/08/15 01:19:51;;;;;;;2.90;2.00;;;21.70;91.60;;;;;;5076161;28;20433;-77
2022/08/15 01:22:45;;;;;;;3.35;1.67;;;21.70;91.70;;;;;;5076301;28;20406;-76
2022/08/15 01:25:42;;;;;;;2.95;1.58;;;21.70;91.60;;;;;;5058288;28;20375;-77
2022/08/15 01:28:14;;;;;;;4.20;1.77;;;21.60;91.80;;;;;;5061592;28;20040;-77
2022/08/15 01:30:55;;;;;;;3.50;1.92;;;21.50;91.90;;;;;;5076069;28;20031;-77
2022/08/15 01:33:23;;;;;;;3.47;1.95;;;21.60;91.70;;;;;;5075916;28;20031;-77
2022/08/15 01:35:51;;;;;;;3.15;1.65;;;21.60;91.80;;;;;;5075610;28;20035;-77
2022/08/15 01:38:34;;;;;;;4.68;1.75;;;21.50;91.90;;;;;;5075596;28;20090;-77
2022/08/15 01:41:39;;;;;;;3.85;2.10;;;21.50;92.00;;;;;;5076088;28;20142;-77
2022/08/15 01:44:13;;;;;;;;;;;21.40;92.00;;;;;;5076064;28;20107;-76
2022/08/15 01:46:47;;;;;;;3.83;1.85;;;21.40;91.90;;;;;;5058093;28;19905;-77
2022/08/15 01:49:20;;;;;;;4.60;2.08;;;21.50;91.90;;;;;;5075668;28;20475;-77
2022/08/15 01:51:46;;;;;;;7.07;1.80;;;21.40;91.90;;;;;;5075558;28;20060;-77
2022/08/15 01:54:13;;;;;;;3.33;1.70;;;21.40;92.10;;;;;;5075506;28;20107;-77
2022/08/15 01:56:45;;;;;;;6.85;1.80;;;21.40;92.10;;;;;;5075383;28;20028;-77
2022/08/15 01:59:17;;;;;;;3.72;1.70;;;21.40;92.00;;;;;;5075697;28;20028;-77
2022/08/15 02:01:48;;;;;;;3.38;1.70;;;21.50;91.80;;;;;;5075817;28;20040;-77
2022/08/15 02:04:17;;;;;;;4.57;2.35;;;21.50;91.70;;;;;;5075462;28;20042;-77
2022/08/15 02:06:44;;;;;;;3.60;2.08;;;21.60;91.80;;;;;;5075551;28;20032;-77
2022/08/15 02:09:14;;;;;;;6.97;2.88;;;21.60;92.30;;;;;;5074873;28;20049;-77
2022/08/15 02:11:41;;;;;;;4.22;2.05;;;21.60;92.60;;;;;;5057294;28;20382;-77
2022/08/15 02:14:08;;;;;;;3.55;1.83;;;21.60;91.90;;;;;;5075012;28;20099;-76
2022/08/15 02:16:36;;;;;;;3.70;1.88;;;21.30;92.20;;;;;;5075220;28;20074;-77
2022/08/15 02:19:04;;;;;;;3.28;1.98;;;21.20;92.40;;;;;;5075102;28;20024;-77
2022/08/15 02:21:31;;;;;;;3.05;1.60;;;21.20;92.60;;;;;;5073901;28;20036;-77
2022/08/15 02:23:57;;;;;;;6.28;1.98;;;21.10;92.80;;;;;;5075112;28;20044;-77
2022/08/15 02:26:24;;;;;;;3.95;2.10;;;21.00;92.90;;;;;;5075265;28;20356;-77
2022/08/15 02:28:50;;;;;;;5.65;2.33;;;21.00;93.20;;;;;;5075067;28;20031;-77
2022/08/15 02:31:21;;;;;;;4.15;1.90;;;20.80;93.20;;;;;;5075042;28;20075;-77
2022/08/15 02:33:50;;;;;;;4.22;1.92;;;20.70;93.20;;;;;;5074854;28;20060;-76
2022/08/15 02:36:18;;;;;;;4.20;2.08;;;20.70;93.20;;;;;;5074728;28;20048;-76
2022/08/15 02:38:49;;;;;;;2.95;1.48;;;20.90;93.10;;;;;;5074860;28;20029;-77
2022/08/15 02:41:20;;;;;;;3.47;1.95;;;20.90;93.20;;;;;;5075057;28;20024;-77
2022/08/15 02:43:46;;;;;;;5.18;1.67;;;20.90;93.30;;;;;;5074828;28;20451;-77
2022/08/15 02:46:16;;;;;;;3.15;1.73;;;20.80;93.20;;;;;;5074691;28;20107;-77
2022/08/15 02:48:43;;;;;;;3.00;1.55;;;20.80;93.30;;;;;;5074276;28;20032;-76
2022/08/15 02:51:11;;;;;;;4.65;1.77;;;20.80;93.10;;;;;;5074611;28;20377;-77
2022/08/15 02:53:37;;;;;;;3.13;1.80;;;21.00;93.00;;;;;;5074432;28;20134;-77
2022/08/15 02:56:06;;;;;;;3.97;1.80;;;20.90;93.00;;;;;;5074353;28;20466;-77
2022/08/15 02:58:35;;;;;;;3.45;1.98;;;20.90;93.10;;;;;;5074320;28;20016;-76
2022/08/15 03:01:04;;;;;;;3.58;2.03;;;20.90;93.00;;;;;;5074111;28;20031;-76
2022/08/15 03:03:30;;;;;;;4.80;2.10;;;20.90;93.10;;;;;;5059132;28;20069;-76
2022/08/15 03:05:57;;;;;;;3.60;2.00;;;20.70;93.50;;;;;;5044970;28;20121;-76
2022/08/15 03:08:23;;;;;;;6.57;2.10;;;20.70;93.50;;;;;;5047399;28;20175;-76
2022/08/15 03:10:50;;;;;;;3.65;2.00;;;20.70;93.50;;;;;;5047800;28;20033;-75
2022/08/15 03:13:17;;;;;;;4.53;1.63;;;20.70;93.60;;;;;;5047687;28;20424;-75
2022/08/15 03:15:56;;;;;;;4.20;1.67;;;20.70;93.60;;;;;;5047462;28;20368;-76
2022/08/15 03:18:24;;;;;;;3.30;1.83;;;20.70;93.60;;;;;;5045590;28;20541;-76
2022/08/15 03:20:53;;;;;;;4.07;2.53;;;20.70;93.60;;;;;;5045356;28;20025;-76
2022/08/15 03:23:21;;;;;;;2.83;1.60;;;20.70;93.40;;;;;;5047166;28;20021;-75
2022/08/15 03:25:50;;;;;;;3.78;2.00;;;20.70;93.40;;;;;;5048503;28;20504;-76
2022/08/15 03:28:23;;;;;;;3.03;1.75;;;20.80;93.40;;;;;;5047987;28;20110;-76
2022/08/15 03:30:49;;;;;;;3.22;1.63;;;20.80;93.50;;;;;;5048473;28;20227;-76
2022/08/15 03:33:16;;;;;;;3.83;1.85;;;20.60;93.50;;;;;;5048837;28;20057;-75
2022/08/15 03:35:45;;;;;;;3.80;1.83;;;20.60;93.80;;;;;;5048757;28;20059;-75
2022/08/15 03:38:12;;;;;;;3.30;1.70;;;20.50;93.90;;;;;;5048403;28;20159;-76
2022/08/15 03:40:39;;;;;;;7.43;2.28;;;20.50;94.00;;;;;;5048365;28;20033;-75
2022/08/15 03:43:13;;;;;;;3.50;1.83;;;20.50;94.00;;;;;;5048525;28;20048;-75
2022/08/15 03:45:40;;;;;;;5.85;2.63;;;20.50;94.00;;;;;;5048715;28;20029;-76
2022/08/15 03:48:06;;;;;;;3.70;2.10;;;20.50;94.10;;;;;;5048234;28;20178;-75
2022/08/15 03:50:32;;;;;;;4.60;1.90;;;20.50;94.10;;;;;;5048163;28;20021;-76
2022/08/15 03:53:05;;;;;;;6.25;2.25;;;20.40;94.10;;;;;;5047797;28;20028;-76
2022/08/15 03:55:33;;;;;;;3.28;1.85;;;20.40;94.30;;;;;;5046759;28;20024;-76
2022/08/15 03:57:59;;;;;;;5.93;1.70;;;20.40;94.30;;;;;;5044747;28;20032;-76
2022/08/15 04:00:28;;;;;;;3.55;1.77;;;20.40;94.20;;;;;;5044993;28;20091;-75
2022/08/15 04:03:25;;;;;;;5.60;2.10;;;20.30;94.40;;;;;;5045398;28;20033;-75
2022/08/15 04:05:53;;;;;;;5.10;1.83;;;20.30;94.50;;;;;;5044445;28;20037;-76
2022/08/15 04:08:22;;;;;;;3.13;1.83;;;20.30;94.40;;;;;;5044295;28;20214;-75
2022/08/15 04:10:51;;;;;;;4.25;2.10;;;20.40;94.40;;;;;;5044833;28;20021;-75
2022/08/15 04:13:20;;;;;;;3.95;1.95;;;20.40;94.30;;;;;;5044770;28;20029;-75
2022/08/15 04:15:46;;;;;;;3.95;1.83;;;20.50;94.20;;;;;;5045102;28;20025;-75
2022/08/15 04:18:11;;;;;;;3.63;2.10;;;20.50;94.30;;;;;;5044182;28;20036;-75
2022/08/15 04:20:37;;;;;;;4.70;2.35;;;20.40;94.40;;;;;;5045041;28;20028;-75
2022/08/15 04:23:04;;;;;;;2.97;1.92;;;20.40;94.30;;;;;;5044508;28;20044;-75
2022/08/15 04:25:33;;;;;;;3.95;1.98;;;20.50;94.30;;;;;;5044558;28;20129;-76
2022/08/15 04:28:03;;;;;;;4.00;2.00;;;20.50;94.40;;;;;;5044451;28;20044;-75
2022/08/15 04:30:32;;;;;;;5.30;1.98;;;20.40;94.90;;;;;;5044244;28;20036;-75
2022/08/15 04:33:22;;;;;;;4.45;1.90;;;20.40;94.80;;;;;;5044185;28;20581;-76
2022/08/15 04:35:58;;;;;;;6.35;2.15;;;20.40;94.70;;;;;;5044051;28;20036;-76
2022/08/15 04:38:24;;;;;;;6.57;1.70;;;20.40;94.70;;;;;;5044473;28;20036;-75
2022/08/15 04:40:50;;;;;;;4.95;2.20;;;20.40;94.80;;;;;;5043875;28;20033;-76
2022/08/15 04:43:18;;;;;;;3.92;1.90;;;20.30;94.70;;;;;;5044742;28;20513;-76
2022/08/15 04:45:44;;;;;;;3.83;2.00;;;20.40;94.60;;;;;;5048652;28;20029;-75
2022/08/15 04:48:14;;;;;;;3.15;1.70;;;20.40;94.70;;;;;;5048401;28;20395;-76
2022/08/15 04:50:40;;;;;;;3.33;1.92;;;20.40;94.70;;;;;;5030232;28;20032;-76
2022/08/15 04:53:07;;;;;;;2.80;1.70;;;20.40;94.60;;;;;;5048490;28;20407;-75
2022/08/15 04:55:35;;;;;;;3.72;2.20;;;20.50;94.50;;;;;;5048133;28;20029;-76
2022/08/15 04:58:01;;;;;;;3.30;2.03;;;20.60;94.40;;;;;;5048365;28;20696;-76
2022/08/15 05:00:29;;;;;;;4.82;2.22;;;20.60;94.50;;;;;;5047744;28;20040;-76
2022/08/15 05:02:58;;;;;;;3.15;1.77;;;20.60;94.60;;;;;;5047891;28;20029;-76
2022/08/15 05:05:24;;;;;;;3.88;2.17;;;20.60;94.80;;;;;;5047895;28;20391;-75
2022/08/15 05:07:50;;;;;;;3.25;1.77;;;20.50;94.80;;;;;;5047542;28;20021;-76
2022/08/15 05:10:17;;;;;;;5.13;2.10;;;20.60;94.80;;;;;;5050596;28;20056;-76
2022/08/15 05:12:43;;;;;;;4.82;2.35;;;20.60;95.00;;;;;;5050830;28;20139;-76
2022/08/15 05:15:15;;;;;;;3.92;2.30;;;20.60;95.30;;;;;;5050926;28;20013;-76
2022/08/15 05:17:40;;;;;;;3.30;1.70;;;20.60;95.30;;;;;;5050572;28;20036;-75
2022/08/15 05:20:07;;;;;;;3.78;1.92;;;20.60;95.00;;;;;;5050647;28;20029;-76
2022/08/15 05:22:33;;;;;;;4.38;1.90;;;20.60;94.80;;;;;;5050515;28;20135;-76
2022/08/15 05:24:59;;;;;;;5.50;2.38;;;20.60;94.90;;;;;;5050853;28;20028;-75
2022/08/15 05:27:24;;;;;;;6.18;2.50;;;20.70;95.00;;;;;;5050645;28;20033;-76
2022/08/15 05:29:51;;;;;;;4.00;2.15;;;20.60;95.10;;;;;;5050672;28;20033;-76
2022/08/15 05:32:18;;;;;;;5.03;2.15;;;20.50;95.20;;;;;;5050543;28;20116;-75
2022/08/15 05:34:46;;;;;;;3.40;1.90;;;20.50;95.40;;;;;;5050581;28;20056;-76
2022/08/15 05:37:12;;;;;;;4.82;1.88;;;20.40;95.80;;;;;;5050347;28;20057;-75
2022/08/15 05:39:39;;;;;;;3.55;1.85;;;20.30;96.10;;;;;;5050233;28;20497;-75
2022/08/15 05:42:46;;;;;;;4.53;2.00;;;20.30;95.90;;;;;;5050530;28;20060;-76
2022/08/15 05:45:27;;;;;;;3.83;2.22;;;20.40;96.10;;;;;;5047081;28;20060;-76
2022/08/15 05:48:02;;;;;;;5.22;2.45;;;20.40;96.50;;;;;;5049889;28;20071;-75
2022/08/15 05:50:43;;;;;;;4.97;2.08;;;20.40;96.30;;;;;;5047856;28;20059;-76
2022/08/15 05:53:40;;;;;;;5.05;2.20;;;20.40;96.60;;;;;;5047301;28;20033;-76
2022/08/15 05:56:14;;;;;;;3.60;2.33;;;20.50;96.50;;;;;;5044965;28;20704;-76
2022/08/15 05:58:51;;;;;;;6.22;2.00;;;20.50;96.40;;;;;;5046949;28;20047;-75
2022/08/15 06:01:32;;;;;;;3.72;2.20;;;20.30;96.70;;;;;;5047397;28;20047;-76
2022/08/15 06:04:20;;;;;;;5.47;1.90;;;20.40;96.70;;;;;;5046974;28;20021;-77
2022/08/15 06:06:48;;;;;;;4.25;1.98;;;20.30;97.00;;;;;;5046835;28;20040;-76
2022/08/15 06:09:23;;;;;;;3.63;2.25;;;20.30;97.20;;;;;;5046683;28;20067;-75
2022/08/15 06:11:53;;;;;;;5.03;2.15;;;20.30;97.10;;;;;;5046731;28;20113;-76
2022/08/15 06:14:27;;;;;;;4.65;2.00;;;20.40;97.30;;;;;;5047019;28;20490;-75
2022/08/15 06:16:56;;;;;;;3.45;1.70;;;20.50;97.50;;;;;;5046427;28;20080;-75
2022/08/15 06:19:32;;;;;;;3.72;2.35;;;20.60;97.30;;;;;;5046673;28;20040;-76
2022/08/15 06:22:33;;;;;;;3.55;2.30;;;20.80;97.00;;;;;;5046492;28;20637;-75
2022/08/15 06:25:28;;;;;;;4.43;2.00;;;21.00;97.50;;;;;;5046705;28;20037;-75
2022/08/15 06:28:33;;;;;;;4.45;2.45;;;21.10;96.30;;;;;;5033096;28;20052;-75
2022/08/15 06:31:19;;;;;;;3.40;2.03;;;21.30;96.30;;;;;;5046548;28;20029;-76
2022/08/15 06:34:01;;;;;;;3.47;2.30;;;21.50;96.80;;;;;;5046233;28;20554;-76
2022/08/15 06:37:00;;;;;;;3.83;2.15;;;21.60;96.30;;;;;;5046158;28;20028;-75
2022/08/15 06:39:56;;;;;;;3.25;1.92;;;21.70;95.90;;;;;;5026213;28;20041;-76
2022/08/15 06:42:33;;;;;;;3.97;2.08;;;21.90;95.90;;;;;;5046480;28;20024;-76
2022/08/15 06:45:05;;;;;;;6.72;2.53;;;21.90;96.00;;;;;;5046255;28;20107;-76
2022/08/15 06:47:32;;;;;;;13.65;2.97;;;22.20;96.20;;;;;;5045969;28;20107;-75
2022/08/15 06:50:03;;;;;;;5.93;2.60;;;22.30;96.30;;;;;;5045741;28;20094;-76
2022/08/15 06:52:29;;;;;;;9.45;2.42;;;22.50;96.10;;;;;;5045354;28;20029;-75
2022/08/15 06:54:57;;;;;;;3.80;2.15;;;22.40;95.90;;;;;;5049505;28;20013;-76
2022/08/15 06:57:26;;;;;;;4.38;2.17;;;22.40;94.90;;;;;;5049290;28;20021;-75
2022/08/15 07:00:03;;;;;;;6.00;2.15;;;22.50;95.00;;;;;;5049046;28;20032;-75
2022/08/15 07:02:47;;;;;;;4.57;2.00;;;22.60;95.00;;;;;;5048863;28;20086;-75
2022/08/15 07:05:22;;;;;;;7.20;2.30;;;22.40;95.00;;;;;;5030861;28;20453;-75
2022/08/15 07:07:54;;;;;;;3.83;2.33;;;23.40;94.80;;;;;;5048536;28;20083;-76
2022/08/15 07:10:25;;;;;;;5.82;1.92;;;23.80;93.60;;;;;;5048538;28;20044;-75
2022/08/15 07:13:12;;;;;;;4.00;2.22;;;23.80;94.40;;;;;;5048869;28;20415;-75
2022/08/15 07:15:53;;;;;;;5.65;2.30;;;24.60;92.80;;;;;;5048772;28;20458;-75
2022/08/15 07:18:28;;;;;;;3.35;2.05;;;25.80;92.20;;;;;;5048777;28;20021;-75
2022/08/15 07:21:16;;;;;;;5.03;2.70;;;24.90;92.10;;;;;;5048606;28;20238;-75
2022/08/15 07:24:04;;;;;;;4.00;2.33;;;24.60;92.90;;;;;;5048149;28;20021;-76
2022/08/15 07:26:51;;;;;;;4.15;2.20;;;24.20;93.10;;;;;;5048212;28;20029;-76
2022/08/15 07:29:30;;;;;;;5.63;2.30;;;23.90;93.50;;;;;;5048121;28;20065;-75
2022/08/15 07:32:51;;;;;;;3.78;2.20;;;23.90;93.70;;;;;;5048199;28;20708;-76
2022/08/15 07:35:23;;;;;;;3.40;2.20;;;23.80;93.70;;;;;;5027103;28;20044;-76
2022/08/15 07:37:56;;;;;;;5.97;2.65;;;23.60;94.10;;;;;;5047699;28;20367;-75
2022/08/15 07:40:34;;;;;;;4.43;2.45;;;23.80;93.90;;;;;;5047798;28;20021;-76
2022/08/15 07:43:03;;;;;;;6.70;2.65;;;23.60;94.00;;;;;;5047647;28;20025;-76
2022/08/15 07:45:34;;;;;;;4.85;2.22;;;23.90;94.00;;;;;;5047719;28;20430;-76
2022/08/15 07:48:04;;;;;;;5.57;2.40;;;23.60;94.10;;;;;;5048036;28;20029;-75
2022/08/15 07:50:39;;;;;;;5.60;2.15;;;24.10;94.00;;;;;;5047971;28;20029;-75
2022/08/15 07:53:22;;;;;;;4.60;2.40;;;24.10;93.90;;;;;;5047906;28;20260;-76
2022/08/15 07:56:21;;;;;;;3.90;2.15;;;24.20;94.00;;;;;;5048206;28;20021;-75
2022/08/15 07:58:52;;;;;;;4.25;2.45;;;24.30;93.30;;;;;;5048140;28;20075;-75
2022/08/15 08:01:26;;;;;;;5.82;2.92;;;24.20;93.00;;;;;;5048210;28;20505;-76
2022/08/15 08:04:12;;;;;;;5.10;2.70;;;24.10;93.90;;;;;;5047973;28;20552;-75
2022/08/15 08:06:50;;;;;;;5.30;2.30;;;24.00;94.40;;;;;;5047963;28;20025;-76
2022/08/15 08:09:20;;;;;;;3.53;2.10;;;23.90;93.60;;;;;;5047600;28;20069;-76
2022/08/15 08:11:52;;;;;;;4.97;2.25;;;23.70;93.50;;;;;;5047999;28;20533;-75
2022/08/15 08:14:35;;;;;;;4.00;2.60;;;23.80;92.90;;;;;;5047926;28;20029;-76
2022/08/15 08:17:34;;;;;;;4.47;2.72;;;24.00;93.50;;;;;;5048105;28;20033;-76
2022/08/15 08:20:17;;;;;;;7.93;2.90;;;24.00;93.60;;;;;;5047537;28;20036;-75
2022/08/15 08:22:57;;;;;;;5.30;3.03;;;24.10;94.20;;;;;;5048047;28;20033;-76
2022/08/15 08:26:08;;;;;;;5.05;2.78;;;24.10;93.80;;;;;;5047688;28;20136;-75
2022/08/15 08:28:45;;;;;;;3.17;2.22;;;24.20;93.50;;;;;;5023701;28;20041;-76
2022/08/15 08:31:26;;;;;;;5.05;2.42;;;24.60;93.20;;;;;;5047728;28;20032;-75
2022/08/15 08:34:36;;;;;;;4.45;2.45;;;26.30;91.80;;;;;;5047441;28;20151;-76
2022/08/15 08:37:20;;;;;;;6.65;2.28;;;27.10;90.70;;;;;;5034051;28;20115;-75
2022/08/15 08:41:24;;;;;;;5.28;2.42;;;27.80;90.20;;;;;;5047854;28;20474;-76
2022/08/15 08:43:13;;;;;;;5.55;2.28;;;28.80;88.30;;;;;;5046872;28;20186;-76
2022/08/15 08:45:57;;;;;;;3.25;2.00;;;28.90;87.80;;;;;;5047504;28;20089;-76
2022/08/15 08:48:43;;;;;;;4.70;2.40;;;29.30;88.90;;;;;;5047498;28;20037;-76
2022/08/15 08:51:34;;;;;;;3.22;2.10;;;29.60;89.80;;;;;;5046761;28;20065;-76
2022/08/15 08:54:33;;;;;;;4.45;2.50;;;29.00;87.70;;;;;;5047444;28;20386;-76
2022/08/15 08:57:02;;;;;;;5.78;2.45;;;28.70;87.00;;;;;;5043396;28;20051;-76
2022/08/15 08:59:36;;;;;;;5.35;2.33;;;28.60;87.80;;;;;;5047421;28;20471;-75
2022/08/15 09:02:20;;;;;;;4.25;2.38;;;28.30;89.20;;;;;;5047852;28;20092;-76
2022/08/15 09:04:54;;;;;;;4.53;2.40;;;27.30;88.40;;;;;;5047478;28;20317;-76
2022/08/15 09:07:24;;;;;;;;;;;26.50;88.70;;;;;;5047888;28;20502;-76
2022/08/15 09:09:52;;;;;;;3.65;2.20;;;26.60;89.10;;;;;;5047312;28;20428;-76
2022/08/15 09:15:21;;;;;;;3.65;2.47;;;26.60;90.00;;;;;;5047668;28;20079;-76
2022/08/15 09:17:54;;;;;;;10.48;3.47;;;26.80;89.30;;;;;;5047502;28;20029;-76
2022/08/15 09:20:27;;;;;;;11.13;3.55;;;27.00;89.90;;;;;;5047180;28;20033;-76
2022/08/15 09:22:55;;;;;;;7.85;2.92;;;26.70;90.10;;;;;;5047624;28;20487;-76
2022/08/15 09:25:23;;;;;;;5.75;2.53;;;27.00;89.80;;;;;;5047156;28;20471;-76
2022/08/15 09:28:02;;;;;;;6.55;2.72;;;27.10;89.60;;;;;;5047354;28;20032;-76
2022/08/15 09:30:28;;;;;;;5.57;2.22;;;27.40;88.40;;;;;;5050334;28;20025;-76
2022/08/15 09:33:15;;;;;;;4.75;2.55;;;27.70;88.60;;;;;;5051133;28;20247;-76
2022/08/15 09:35:49;;;;;;;3.17;2.00;;;27.70;89.00;;;;;;5051407;28;20060;-76
2022/08/15 09:38:29;;;;;;;5.05;2.65;;;27.70;90.00;;;;;;5051364;28;20025;-76
2022/08/15 09:41:20;;;;;;;7.47;2.95;;;27.80;88.20;;;;;;5050796;28;20033;-76
2022/08/15 09:43:55;;;;;;;3.50;2.30;;;27.90;90.70;;;;;;5051203;28;20314;-76
2022/08/15 09:46:42;;;;;;;7.18;2.50;;;28.00;89.60;;;;;;5050695;28;20379;-76
2022/08/15 09:49:20;;;;;;;7.47;2.83;;;27.80;88.00;;;;;;5051024;28;20039;-76
2022/08/15 09:51:49;;;;;;;4.35;2.85;;;27.80;89.20;;;;;;5050820;28;20498;-76
2022/08/15 09:54:25;;;;;;;5.15;2.42;;;27.80;89.80;;;;;;5050671;28;20033;-76
2022/08/15 09:57:20;;;;;;;7.45;2.90;;;28.00;90.10;;;;;;5050625;28;20032;-76
2022/08/15 09:59:57;;;;;;;5.90;2.85;;;28.00;88.70;;;;;;5050041;28;20021;-76
2022/08/15 10:02:26;;;;;;;5.75;2.40;;;28.30;88.80;;;;;;5050966;28;20103;-76
2022/08/15 10:04:55;;;;;;;15.13;4.07;;;28.30;88.20;;;;;;5050437;28;20032;-77
2022/08/15 10:07:47;;;;;;;5.95;2.47;;;28.20;88.20;;;;;;5050620;28;20028;-76
2022/08/15 10:10:22;;;;;;;4.78;2.50;;;28.20;89.30;;;;;;5050568;28;20333;-76
2022/08/15 10:13:07;;;;;;;4.25;2.10;;;28.40;88.70;;;;;;5050460;28;20093;-76
2022/08/15 10:15:43;;;;;;;4.03;2.47;;;28.10;87.70;;;;;;5050984;28;20028;-76
2022/08/15 10:18:22;;;;;;;8.25;2.50;;;28.30;90.10;;;;;;5050474;28;20091;-76
2022/08/15 10:20:56;;;;;;;5.43;3.00;;;28.40;88.40;;;;;;5049963;28;20071;-76
2022/08/15 10:23:40;;;;;;;8.98;3.22;;;28.40;87.00;;;;;;5050148;28;20025;-76
2022/08/15 10:26:20;;;;;;;4.13;2.38;;;28.60;88.70;;;;;;5050045;28;20032;-76
2022/08/15 10:29:04;;;;;;;6.22;2.25;;;28.80;87.60;;;;;;5050093;28;20029;-76
2022/08/15 10:31:40;;;;;;;4.00;2.40;;;28.80;88.70;;;;;;5050226;28;20052;-76
2022/08/15 10:34:17;;;;;;;4.72;2.28;;;28.80;86.60;;;;;;5050508;28;20394;-76
2022/08/15 10:37:09;;;;;;;5.38;2.65;;;29.10;86.90;;;;;;5049904;28;20033;-76
2022/08/15 10:39:58;;;;;;;3.80;1.95;;;29.50;85.00;;;;;;5049291;28;20028;-76
2022/08/15 10:42:55;;;;;;;6.20;2.53;;;29.60;85.00;;;;;;5017595;28;20037;-76
2022/08/15 10:45:30;;;;;;;9.82;2.38;;;29.70;84.80;;;;;;5049731;28;20036;-76
2022/08/15 10:48:01;;;;;;;4.43;2.25;;;29.80;84.40;;;;;;5050234;28;20035;-76
2022/08/15 10:50:36;;;;;;;4.35;2.53;;;29.60;84.10;;;;;;5049918;28;20028;-76
2022/08/15 10:53:12;;;;;;;3.88;2.33;;;29.40;85.10;;;;;;5049465;28;20039;-76
2022/08/15 10:55:40;;;;;;;7.47;2.20;;;29.40;84.10;;;;;;5049634;28;20036;-76
2022/08/15 10:58:24;;;;;;;4.57;2.50;;;29.80;84.70;;;;;;5049461;28;20116;-76
2022/08/15 11:01:06;;;;;;;5.47;2.58;;;30.00;84.60;;;;;;5048423;28;20028;-76
2022/08/15 11:03:48;;;;;;;7.25;2.60;;;29.80;85.40;;;;;;5049991;28;20087;-77
2022/08/15 11:06:17;;;;;;;4.25;2.38;;;29.50;84.20;;;;;;5049964;28;20054;-76
2022/08/15 11:08:46;;;;;;;6.55;2.50;;;29.90;84.00;;;;;;5048640;28;20237;-76
2022/08/15 11:11:12;;;;;;;9.68;2.30;;;29.70;83.60;;;;;;5049231;28;20051;-77
2022/08/15 11:13:42;;;;;;;5.80;2.53;;;29.80;85.40;;;;;;5049248;28;20479;-76
2022/08/15 11:16:15;;;;;;;7.07;2.72;;;29.90;83.20;;;;;;5049281;28;20204;-76
2022/08/15 11:18:50;;;;;;;4.85;2.42;;;29.70;84.00;;;;;;5049044;28;20017;-76
2022/08/15 11:21:46;;;;;;;6.78;2.40;;;29.90;83.70;;;;;;5049128;28;20055;-76
2022/08/15 11:24:12;;;;;;;6.78;3.05;;;30.00;84.90;;;;;;5048866;28;20025;-76
2022/08/15 11:26:41;;;;;;;5.40;3.00;;;30.10;83.60;;;;;;5049221;28;20391;-76
2022/08/15 11:29:14;;;;;;;4.70;2.30;;;30.10;83.70;;;;;;5048868;28;20025;-76
2022/08/15 11:31:52;;;;;;;6.50;3.50;;;30.20;82.90;;;;;;5048861;28;20025;-77
2022/08/15 11:34:33;;;;;;;5.97;2.78;;;30.00;83.60;;;;;;5049215;28;20021;-76
2022/08/15 11:37:12;;;;;;;5.72;2.40;;;30.20;83.60;;;;;;5048512;28;20051;-76
2022/08/15 11:40:00;;;;;;;4.53;1.98;;;30.40;83.90;;;;;;5048330;28;20029;-76
2022/08/15 11:42:29;;;;;;;3.88;2.60;;;30.50;83.70;;;;;;5048846;28;20475;-77
2022/08/15 11:45:03;;;;;;;5.38;2.47;;;30.40;82.70;;;;;;5048824;28;20109;-76
2022/08/15 11:47:31;;;;;;;4.35;2.38;;;30.30;82.90;;;;;;5048744;28;20025;-77
2022/08/15 11:50:04;;;;;;;5.93;2.50;;;30.20;83.20;;;;;;5048423;28;20029;-77
2022/08/15 11:52:33;;;;;;;3.72;2.15;;;30.30;82.80;;;;;;5048595;28;20447;-77
2022/08/15 11:55:19;;;;;;;5.93;2.92;;;30.30;82.30;;;;;;5048799;28;20021;-77
2022/08/15 11:57:47;;;;;;;4.63;2.30;;;30.60;82.10;;;;;;5049158;28;20472;-76
2022/08/15 12:00:45;;;;;;;5.15;2.67;;;30.50;81.50;;;;;;5048471;28;20029;-77
2022/08/15 12:03:25;;;;;;;3.90;2.53;;;30.70;83.60;;;;;;5035449;28;20037;-77
2022/08/15 12:06:11;;;;;;;4.35;2.60;;;30.50;81.80;;;;;;5049927;28;20036;-76
2022/08/15 12:08:37;;;;;;;5.45;2.33;;;30.00;81.90;;;;;;5038632;28;20507;-76
2022/08/15 12:11:21;;;;;;;4.25;2.20;;;30.00;82.60;;;;;;5049207;28;20085;-76
2022/08/15 12:13:57;;;;;;;8.80;2.90;;;30.20;83.20;;;;;;5046528;28;20528;-77
2022/08/15 12:16:29;;;;;;;6.10;2.45;;;30.10;82.60;;;;;;5046557;28;20215;-76
2022/08/15 12:18:55;;;;;;;4.47;2.75;;;30.30;82.30;;;;;;5049330;28;20036;-77
2022/08/15 12:21:23;;;;;;;6.22;2.42;;;30.40;82.20;;;;;;5048933;28;20025;-76
2022/08/15 12:23:57;;;;;;;4.47;2.13;;;30.60;82.90;;;;;;5048384;28;20060;-76
2022/08/15 12:26:27;;;;;;;6.28;3.03;;;30.80;82.00;;;;;;5049056;28;20187;-77
2022/08/15 12:28:55;;;;;;;4.90;2.95;;;30.50;81.80;;;;;;5049530;28;20123;-77
2022/08/15 12:31:34;;;;;;;4.28;2.50;;;30.70;83.20;;;;;;5049978;28;20028;-76
2022/08/15 12:34:02;;;;;;;5.80;2.65;;;30.80;81.10;;;;;;5048339;28;20017;-76
2022/08/15 12:36:29;;;;;;;6.03;2.03;;;30.70;82.40;;;;;;5048361;28;20025;-77
2022/08/15 12:38:54;;;;;;;4.32;2.35;;;30.70;81.10;;;;;;5048447;28;20052;-77
2022/08/15 12:41:20;;;;;;;5.35;2.30;;;30.70;81.80;;;;;;5048673;28;20057;-77
2022/08/15 12:43:46;;;;;;;8.38;3.13;;;30.90;82.70;;;;;;5048205;28;20025;-77
2022/08/15 12:46:12;;;;;;;4.32;2.33;;;30.90;82.30;;;;;;5048702;28;20065;-77
2022/08/15 12:48:39;;;;;;;4.55;2.42;;;30.70;81.10;;;;;;5048153;28;20601;-77
2022/08/15 12:51:07;;;;;;;4.78;2.97;;;30.50;81.30;;;;;;5048966;28;20490;-77
2022/08/15 12:53:33;;;;;;;4.95;2.38;;;30.50;81.30;;;;;;5048697;28;20036;-76
2022/08/15 12:55:59;;;;;;;4.80;2.42;;;30.70;81.90;;;;;;5049005;28;20409;-77
2022/08/15 12:58:26;;;;;;;4.00;2.42;;;31.00;81.40;;;;;;5048627;28;20033;-76
2022/08/15 13:00:57;;;;;;;4.07;2.13;;;31.10;82.00;;;;;;5048715;28;20021;-77
2022/08/15 13:03:29;;;;;;;8.50;3.13;;;31.00;81.00;;;;;;5048749;28;20486;-77
2022/08/15 13:06:28;;;;;;;3.50;2.17;;;30.90;80.90;;;;;;5052126;28;20040;-77
2022/08/15 13:08:54;;;;;;;8.30;2.47;;;30.90;82.60;;;;;;5039867;28;20557;-77
2022/08/15 13:11:21;;;;;;;5.10;2.63;;;30.80;80.90;;;;;;5052075;28;20037;-77
2022/08/15 13:13:47;;;;;;;5.70;2.80;;;30.90;81.20;;;;;;5051353;28;20040;-76
2022/08/15 13:16:13;;;;;;;6.10;2.58;;;31.00;80.00;;;;;;5052567;28;20107;-77
2022/08/15 13:18:39;;;;;;;4.82;2.78;;;31.10;80.00;;;;;;5051544;28;20108;-76
2022/08/15 13:23:53;;;;;;;4.78;2.05;;;31.10;80.20;;;;;;5051404;28;20394;-76
2022/08/15 13:26:22;;;;;;;6.32;2.67;;;30.90;79.00;;;;;;5051378;28;20032;-77
2022/08/15 13:28:50;;;;;;;5.40;2.55;;;31.10;79.40;;;;;;5051179;28;20036;-77
2022/08/15 13:31:18;;;;;;;3.80;2.45;;;31.20;79.30;;;;;;5051293;28;20405;-77